createdAt,value
2018-04-13T00:00:04.533Z,23.07
2018-04-13T00:02:32.800Z,23.37
2018-04-13T00:05:00.279Z,22.90
2018-04-13T00:07:28.541Z,22.60
2018-04-13T00:09:56.843Z,24.43
2018-04-13T00:12:25.092Z,22.67
2018-04-13T00:14:53.399Z,23.57
2018-04-13T00:17:20.887Z,22.97
2018-04-13T00:19:48.369Z,23.53
2018-04-13T00:22:15.954Z,33.07
2018-04-13T00:24:44.225Z,23.50
2018-04-13T00:27:12.486Z,23.20
2018-04-13T00:29:39.979Z,23.17
2018-04-13T00:32:07.561Z,22.40
2018-04-13T00:34:35.085Z,22.60
2018-04-13T00:37:03.372Z,22.23
2018-04-13T00:39:31.621Z,22.83
2018-04-13T00:41:59.117Z,22.33
2018-04-13T00:44:26.601Z,22.67
2018-04-13T00:46:54.093Z,22.07
2018-04-13T00:49:21.584Z,21.87
2018-04-13T00:51:49.074Z,21.03
2018-04-13T00:54:16.613Z,22.57
2018-04-13T00:56:44.102Z,22.37
2018-04-13T00:59:11.626Z,23.33
2018-04-13T01:01:39.117Z,24.50
2018-04-13T01:04:06.638Z,25.80
2018-04-13T01:06:34.135Z,24.23
2018-04-13T01:09:01.644Z,23.20
2018-04-13T01:11:29.175Z,22.07
2018-04-13T01:13:56.761Z,23.10
2018-04-13T01:16:25.023Z,22.70
2018-04-13T01:18:53.314Z,22.73
2018-04-13T01:21:21.618Z,22.50
2018-04-13T01:23:49.097Z,22.07
2018-04-13T01:26:16.620Z,22.23
2018-04-13T01:28:44.115Z,22.63
2018-04-13T01:31:11.621Z,21.83
2018-04-13T01:33:39.909Z,22.67
2018-04-13T01:36:08.159Z,22.37
2018-04-13T01:38:36.461Z,23.03
2018-04-13T01:41:04.825Z,22.47
2018-04-13T01:43:32.301Z,22.43
2018-04-13T01:45:59.858Z,22.50
2018-04-13T01:48:28.798Z,21.73
2018-04-13T01:50:56.310Z,22.10
2018-04-13T01:53:23.891Z,21.93
2018-04-13T01:55:51.413Z,21.47
2018-04-13T01:58:19.709Z,20.77
2018-04-13T02:00:47.197Z,21.40
2018-04-13T02:03:14.718Z,21.10
2018-04-13T02:05:42.989Z,21.83
2018-04-13T02:08:11.236Z,22.17
2018-04-13T02:10:38.743Z,20.40
2018-04-13T02:13:06.293Z,21.23
2018-04-13T02:15:34.539Z,21.27
2018-04-13T02:18:02.064Z,21.53
2018-04-13T02:20:29.593Z,21.50
2018-04-13T02:22:57.093Z,21.13
2018-04-13T02:25:24.593Z,21.57
2018-04-13T02:27:52.843Z,21.43
2018-04-13T02:30:20.312Z,21.50
2018-04-13T02:32:47.834Z,21.27
2018-04-13T02:35:15.330Z,20.27
2018-04-13T02:37:42.831Z,20.73
2018-04-13T02:40:10.379Z,20.47
2018-04-13T02:42:37.859Z,20.10
2018-04-13T02:45:05.386Z,19.67
2018-04-13T02:47:33.644Z,20.77
2018-04-13T02:50:01.245Z,20.77
2018-04-13T02:52:28.743Z,20.27
2018-04-13T02:54:56.236Z,19.80
2018-04-13T02:57:24.494Z,20.10
2018-04-13T02:59:53.477Z,19.77
2018-04-13T03:02:20.963Z,19.87
2018-04-13T03:04:49.208Z,20.40
2018-04-13T03:07:16.804Z,19.23
2018-04-13T03:09:45.048Z,19.40
2018-04-13T03:12:12.562Z,19.50
2018-04-13T03:14:40.037Z,19.53
2018-04-13T03:17:07.553Z,20.07
2018-04-13T03:19:35.931Z,20.40
2018-04-13T03:22:03.464Z,20.20
2018-04-13T03:24:31.057Z,19.80
2018-04-13T03:26:59.317Z,18.97
2018-04-13T03:29:26.816Z,20.10
2018-04-13T03:31:54.303Z,19.83
2018-04-13T03:34:21.938Z,19.30
2018-04-13T03:36:49.432Z,20.10
2018-04-13T03:39:16.985Z,19.50
2018-04-13T03:41:44.472Z,20.60
2018-04-13T03:44:12.736Z,19.93
2018-04-13T03:46:40.500Z,20.53
2018-04-13T03:49:08.073Z,20.10
2018-04-13T03:51:36.325Z,18.93
2018-04-13T03:54:03.923Z,18.83
2018-04-13T03:56:32.168Z,19.03
2018-04-13T03:58:59.666Z,19.40
2018-04-13T04:01:27.166Z,27.80
2018-04-13T04:03:54.798Z,23.20
2018-04-13T04:06:22.325Z,26.47
2018-04-13T04:08:49.840Z,24.80
2018-04-13T04:11:17.343Z,18.57
2018-04-13T04:13:45.646Z,17.67
2018-04-13T04:16:13.125Z,16.87
2018-04-13T04:18:40.660Z,17.90
2018-04-13T04:21:20.057Z,17.33
2018-04-13T04:23:59.539Z,16.73
2018-04-13T04:26:39.449Z,17.33
2018-04-13T04:29:07.039Z,24.27
2018-04-13T04:31:35.302Z,21.17
2018-04-13T04:34:03.587Z,23.23
2018-04-13T04:36:31.855Z,17.70
2018-04-13T04:39:00.141Z,17.43
2018-04-13T04:41:28.386Z,17.87
2018-04-13T04:43:55.975Z,18.80
2018-04-13T04:46:24.244Z,19.03
2018-04-13T04:48:52.509Z,21.30
2018-04-13T04:51:19.994Z,27.90
2018-04-13T04:53:47.481Z,23.13
2018-04-13T04:56:14.965Z,19.97
2018-04-13T04:58:42.582Z,21.33
2018-04-13T05:01:10.168Z,21.30
2018-04-13T05:03:37.658Z,20.03
2018-04-13T05:06:05.141Z,19.40
2018-04-13T05:08:33.395Z,19.70
2018-04-13T05:11:00.874Z,17.73
2018-04-13T05:13:28.400Z,19.33
2018-04-13T05:15:55.882Z,20.87
2018-04-13T05:18:23.390Z,20.57
2018-04-13T05:20:50.878Z,21.13
2018-04-13T05:23:18.469Z,22.43
2018-04-13T05:25:46.714Z,21.87
2018-04-13T05:28:14.221Z,23.53
2018-04-13T05:30:41.768Z,23.20
2018-04-13T05:33:10.045Z,22.50
2018-04-13T05:35:38.485Z,21.73
2018-04-13T05:38:06.083Z,22.77
2018-04-13T05:40:34.349Z,21.10
2018-04-13T05:43:01.874Z,21.67
2018-04-13T05:45:29.356Z,22.00
2018-04-13T05:47:56.844Z,21.63
2018-04-13T05:50:24.325Z,21.43
2018-04-13T05:52:51.841Z,22.63
2018-04-13T05:55:20.182Z,21.70
2018-04-13T05:57:47.668Z,21.87
2018-04-13T06:00:15.156Z,20.57
2018-04-13T06:02:42.655Z,20.77
2018-04-13T06:05:10.133Z,20.57
2018-04-13T06:07:37.624Z,19.70
2018-04-13T06:10:05.870Z,19.20
2018-04-13T06:12:33.396Z,20.37
2018-04-13T06:15:00.922Z,21.40
2018-04-13T06:17:28.477Z,19.47
2018-04-13T06:19:56.755Z,19.23
2018-04-13T06:22:25.031Z,19.73
2018-04-13T06:24:52.571Z,18.60
2018-04-13T06:27:20.845Z,18.90
2018-04-13T06:29:48.313Z,18.67
2018-04-13T06:32:16.568Z,18.30
2018-04-13T06:34:44.148Z,18.00
2018-04-13T06:37:12.436Z,17.20
2018-04-13T06:39:39.964Z,17.63
2018-04-13T06:42:07.513Z,17.30
2018-04-13T06:44:34.990Z,17.93
2018-04-13T06:47:02.506Z,17.00
2018-04-13T06:49:30.000Z,18.17
2018-04-13T06:51:57.492Z,17.97
2018-04-13T06:54:25.018Z,17.73
2018-04-13T06:56:52.681Z,17.87
2018-04-13T06:59:20.338Z,18.47
2018-04-13T07:01:47.923Z,20.63
2018-04-13T07:04:15.430Z,20.50
2018-04-13T07:06:42.964Z,21.47
2018-04-13T07:09:10.517Z,22.03
2018-04-13T07:11:38.065Z,22.83
2018-04-13T07:14:06.316Z,24.07
2018-04-13T07:16:33.800Z,23.43
2018-04-13T07:19:02.066Z,24.67
2018-04-13T07:21:29.635Z,24.90
2018-04-13T07:23:57.902Z,24.77
2018-04-13T07:26:25.387Z,25.60
2018-04-13T07:28:52.922Z,27.20
2018-04-13T07:31:21.180Z,27.93
2018-04-13T07:33:48.675Z,28.07
2018-04-13T07:36:17.445Z,28.83
2018-04-13T07:38:44.447Z,32.40
2018-04-13T07:41:11.958Z,31.80
2018-04-13T07:43:40.273Z,33.67
2018-04-13T07:46:07.776Z,33.63
2018-04-13T07:48:35.268Z,34.53
2018-04-13T07:51:02.807Z,33.43
2018-04-13T07:53:31.080Z,31.60
2018-04-13T07:55:58.663Z,30.93
2018-04-13T07:58:26.146Z,30.47
2018-04-13T08:00:53.944Z,30.67
2018-04-13T08:03:21.120Z,31.73
2018-04-13T08:05:49.381Z,30.10
2018-04-13T08:08:17.672Z,30.07
2018-04-13T08:10:46.056Z,29.07
2018-04-13T08:13:14.319Z,29.33
2018-04-13T08:15:41.796Z,28.10
2018-04-13T08:18:10.055Z,27.60
2018-04-13T08:20:37.532Z,26.90
2018-04-13T08:23:05.812Z,25.43
2018-04-13T08:25:34.081Z,24.90
2018-04-13T08:28:02.345Z,23.47
2018-04-13T08:30:29.916Z,24.90
2018-04-13T08:32:57.457Z,24.00
2018-04-13T08:35:25.780Z,24.00
2018-04-13T08:37:53.300Z,24.77
2018-04-13T08:40:20.801Z,25.50
2018-04-13T08:42:48.298Z,24.57
2018-04-13T08:45:15.984Z,26.23
2018-04-13T08:47:44.279Z,26.23
2018-04-13T08:50:12.545Z,25.63
2018-04-13T08:52:40.065Z,24.93
2018-04-13T08:55:07.570Z,23.50
2018-04-13T08:57:35.820Z,22.43
2018-04-13T09:00:03.405Z,21.13
2018-04-13T09:02:30.969Z,20.93
2018-04-13T09:04:58.480Z,22.07
2018-04-13T09:07:25.984Z,19.93
2018-04-13T09:09:54.246Z,19.90
2018-04-13T09:12:22.522Z,20.63
2018-04-13T09:14:50.779Z,19.90
2018-04-13T09:17:18.312Z,19.87
2018-04-13T09:19:45.838Z,19.23
2018-04-13T09:22:13.357Z,19.63
2018-04-13T09:24:40.981Z,19.90
2018-04-13T09:27:08.477Z,19.27
2018-04-13T09:29:36.082Z,19.00
2018-04-13T09:32:03.627Z,20.00
2018-04-13T09:34:31.880Z,19.77
2018-04-13T09:36:59.376Z,18.03
2018-04-13T09:39:26.891Z,18.30
2018-04-13T09:41:54.473Z,18.10
2018-04-13T09:44:22.824Z,17.63
2018-04-13T09:46:50.281Z,16.97
2018-04-13T09:49:17.779Z,16.23
2018-04-13T09:51:45.272Z,18.47
2018-04-13T09:54:12.752Z,18.00
2018-04-13T09:56:40.239Z,17.97
2018-04-13T09:59:08.619Z,17.70
2018-04-13T10:01:39.780Z,18.73
2018-04-13T10:04:13.294Z,18.80
2018-04-13T10:06:40.807Z,18.47
2018-04-13T10:09:08.325Z,16.27
2018-04-13T10:11:36.516Z,15.17
2018-04-13T10:14:04.941Z,15.03
2018-04-13T10:16:33.219Z,13.57
2018-04-13T10:19:01.496Z,14.13
2018-04-13T10:21:29.756Z,12.73
2018-04-13T10:23:57.230Z,10.83
2018-04-13T10:26:25.489Z,9.73
2018-04-13T10:28:53.002Z,10.70
2018-04-13T10:31:20.493Z,15.10
2018-04-13T10:33:48.072Z,10.60
2018-04-13T10:36:16.350Z,9.73
2018-04-13T10:38:44.599Z,9.37
2018-04-13T10:41:12.110Z,8.47
2018-04-13T10:43:39.594Z,7.70
2018-04-13T10:46:07.088Z,7.43
2018-04-13T10:48:34.560Z,7.47
2018-04-13T10:51:02.835Z,7.93
2018-04-13T10:53:31.083Z,6.70
2018-04-13T10:55:58.706Z,7.10
2018-04-13T10:58:26.195Z,6.90
2018-04-13T11:00:54.210Z,7.77
2018-04-13T11:03:21.739Z,6.50
2018-04-13T11:05:49.223Z,6.30
2018-04-13T11:08:17.467Z,6.40
2018-04-13T11:10:44.963Z,6.33
2018-04-13T11:13:13.248Z,6.67
2018-04-13T11:15:40.746Z,7.17
2018-04-13T11:18:08.249Z,5.87
2018-04-13T11:20:36.504Z,6.30
2018-04-13T11:23:04.109Z,6.47
2018-04-13T11:25:31.641Z,6.83
2018-04-13T11:27:59.116Z,6.03
2018-04-13T11:30:27.360Z,6.00
2018-04-13T11:32:54.856Z,6.07
2018-04-13T11:35:22.488Z,6.40
2018-04-13T11:37:50.073Z,5.87
2018-04-13T11:40:17.568Z,5.87
2018-04-13T11:42:45.254Z,5.90
2018-04-13T11:45:13.557Z,5.60
2018-04-13T11:47:41.869Z,6.40
2018-04-13T11:50:09.372Z,5.80
2018-04-13T11:52:37.143Z,5.70
2018-04-13T11:55:04.665Z,7.50
2018-04-13T11:57:32.191Z,7.60
2018-04-13T11:59:59.779Z,6.10
2018-04-13T12:02:27.330Z,6.37
2018-04-13T12:04:54.836Z,6.23
2018-04-13T12:07:22.405Z,6.03
2018-04-13T12:09:49.923Z,6.37
2018-04-13T12:12:17.393Z,5.97
2018-04-13T12:14:44.911Z,5.47
2018-04-13T12:17:12.392Z,6.47
2018-04-13T12:19:39.868Z,6.40
2018-04-13T12:22:07.357Z,5.77
2018-04-13T12:24:36.371Z,6.17
2018-04-13T12:27:04.646Z,6.07
2018-04-13T12:29:32.921Z,6.17
2018-04-13T12:32:01.166Z,6.57
2018-04-13T12:34:29.488Z,7.30
2018-04-13T12:36:57.013Z,7.77
2018-04-13T12:39:24.508Z,7.80
2018-04-13T12:41:51.978Z,7.97
2018-04-13T12:44:19.499Z,8.00
2018-04-13T12:46:47.744Z,8.50
2018-04-13T12:49:15.250Z,7.47
2018-04-13T12:51:42.743Z,7.30
2018-04-13T12:54:10.318Z,7.33
2018-04-13T12:56:37.788Z,7.47
2018-04-13T12:59:05.402Z,8.07
2018-04-13T13:01:32.943Z,7.50
2018-04-13T13:04:00.463Z,7.50
2018-04-13T13:06:27.942Z,6.80
2018-04-13T13:08:56.248Z,7.30
2018-04-13T13:11:24.481Z,8.73
2018-04-13T13:13:51.986Z,8.57
2018-04-13T13:16:20.229Z,7.13
2018-04-13T13:18:47.764Z,7.27
2018-04-13T13:21:15.249Z,7.37
2018-04-13T13:23:43.508Z,7.07
2018-04-13T13:26:10.991Z,7.43
2018-04-13T13:28:39.262Z,6.77
2018-04-13T13:31:06.824Z,7.77
2018-04-13T13:33:35.081Z,7.80
2018-04-13T13:36:02.561Z,7.53
2018-04-13T13:38:30.808Z,7.23
2018-04-13T13:40:59.111Z,6.70
2018-04-13T13:43:27.361Z,9.93
2018-04-13T13:45:55.063Z,7.93
2018-04-13T13:48:22.572Z,7.63
2018-04-13T13:50:50.062Z,8.97
2018-04-13T13:53:18.363Z,8.53
2018-04-13T13:55:46.025Z,7.53
2018-04-13T13:58:13.535Z,6.80
2018-04-13T14:00:41.028Z,7.17
2018-04-13T14:03:09.273Z,7.00
2018-04-13T14:05:37.300Z,7.70
2018-04-13T14:08:04.823Z,8.20
2018-04-13T14:10:32.318Z,9.07
2018-04-13T14:12:59.852Z,7.43
2018-04-13T14:15:28.117Z,7.47
2018-04-13T14:17:56.387Z,8.20
2018-04-13T14:20:23.889Z,7.63
2018-04-13T14:22:51.396Z,7.07
2018-04-13T14:25:18.977Z,7.00
2018-04-13T14:27:47.231Z,7.30
2018-04-13T14:30:14.759Z,6.77
2018-04-13T14:32:42.270Z,6.23
2018-04-13T14:35:10.521Z,7.43
2018-04-13T14:37:38.018Z,6.40
2018-04-13T14:40:06.292Z,6.13
2018-04-13T14:42:34.549Z,6.43
2018-04-13T14:45:02.042Z,6.23
2018-04-13T14:47:29.526Z,7.20
2018-04-13T14:49:57.085Z,6.73
2018-04-13T14:52:24.852Z,6.90
2018-04-13T14:54:52.350Z,6.63
2018-04-13T14:57:19.822Z,6.73
2018-04-13T14:59:48.093Z,7.23
2018-04-13T15:02:16.474Z,6.90
2018-04-13T15:04:43.959Z,6.40
2018-04-13T15:07:12.220Z,6.80
2018-04-13T15:09:39.724Z,6.40
2018-04-13T15:12:07.336Z,6.90
2018-04-13T15:14:35.625Z,6.77
2018-04-13T15:17:04.016Z,8.77
2018-04-13T15:19:31.541Z,7.83
2018-04-13T15:21:59.802Z,7.37
2018-04-13T15:24:27.290Z,7.47
2018-04-13T15:26:55.565Z,6.90
2018-04-13T15:29:23.833Z,6.77
2018-04-13T15:31:52.168Z,6.97
2018-04-13T15:34:19.679Z,6.73
2018-04-13T15:36:47.956Z,6.63
2018-04-13T15:39:16.217Z,6.67
2018-04-13T15:41:44.469Z,6.63
2018-04-13T15:44:12.081Z,7.37
2018-04-13T15:46:39.564Z,7.60
2018-04-13T15:49:07.146Z,7.17
2018-04-13T15:51:34.653Z,7.37
2018-04-13T15:54:02.958Z,7.57
2018-04-13T15:56:30.484Z,6.77
2018-04-13T15:58:58.017Z,7.10
2018-04-13T16:01:25.522Z,6.40
2018-04-13T16:03:53.050Z,7.23
2018-04-13T16:06:21.322Z,7.30
2018-04-13T16:08:49.610Z,6.40
2018-04-13T16:11:17.865Z,6.17
2018-04-13T16:13:45.341Z,7.37
2018-04-13T16:16:12.856Z,7.60
2018-04-13T16:18:40.352Z,7.90
2018-04-13T16:21:07.869Z,7.70
2018-04-13T16:23:35.382Z,9.63
2018-04-13T16:26:03.677Z,7.70
2018-04-13T16:28:31.165Z,8.10
2018-04-13T16:30:58.785Z,7.43
2018-04-13T16:33:26.313Z,7.60
2018-04-13T16:35:53.892Z,7.53
2018-04-13T16:38:22.203Z,7.10
2018-04-13T16:40:49.730Z,6.60
2018-04-13T16:43:17.997Z,7.07
2018-04-13T16:45:46.325Z,6.87
2018-04-13T16:48:14.763Z,6.80
2018-04-13T16:50:43.066Z,7.03
2018-04-13T16:53:10.561Z,7.63
2018-04-13T16:55:38.044Z,8.37
2018-04-13T16:58:05.625Z,7.50
2018-04-13T17:00:33.863Z,7.40
2018-04-13T17:03:01.451Z,5.07
2018-04-13T17:05:29.685Z,4.50
2018-04-13T17:07:57.354Z,4.50
2018-04-13T17:10:24.853Z,5.50
2018-04-13T17:12:53.123Z,6.70
2018-04-13T17:15:20.641Z,7.57
2018-04-13T17:17:48.138Z,5.90
2018-04-13T17:20:16.417Z,6.20
2018-04-13T17:22:44.691Z,6.67
2018-04-13T17:25:13.073Z,6.43
2018-04-13T17:27:41.343Z,7.43
2018-04-13T17:30:09.609Z,6.60
2018-04-13T17:32:37.113Z,7.07
2018-04-13T17:35:04.636Z,7.90
2018-04-13T17:37:32.893Z,7.53
2018-04-13T17:40:00.400Z,7.77
2018-04-13T17:42:27.896Z,7.43
2018-04-13T17:44:55.384Z,6.53
2018-04-13T17:47:23.912Z,6.73
2018-04-13T17:49:51.397Z,6.37
2018-04-13T17:52:18.913Z,6.70
2018-04-13T17:54:46.446Z,6.80
2018-04-13T17:57:14.024Z,8.70
2018-04-13T17:59:42.268Z,7.77
2018-04-13T18:02:10.561Z,6.53
2018-04-13T18:04:38.824Z,7.23
2018-04-13T18:07:06.315Z,7.10
2018-04-13T18:09:33.782Z,6.60
2018-04-13T18:12:01.323Z,7.07
2018-04-13T18:14:29.577Z,10.03
2018-04-13T18:16:57.049Z,6.10
2018-04-13T18:19:25.311Z,6.10
2018-04-13T18:21:53.647Z,6.93
2018-04-13T18:24:21.185Z,6.53
2018-04-13T18:26:48.666Z,5.87
2018-04-13T18:29:16.179Z,5.57
2018-04-13T18:31:44.445Z,6.10
2018-04-13T18:34:11.926Z,5.40
2018-04-13T18:36:40.185Z,5.50
2018-04-13T18:39:08.461Z,6.10
2018-04-13T18:41:35.954Z,5.20
2018-04-13T18:44:03.436Z,5.37
2018-04-13T18:46:30.917Z,5.60
2018-04-13T18:48:58.522Z,5.43
2018-04-13T18:51:25.997Z,5.17
2018-04-13T18:53:54.378Z,5.73
2018-04-13T18:56:21.889Z,5.60
2018-04-13T18:58:49.382Z,5.97
2018-04-13T19:01:16.892Z,5.90
2018-04-13T19:03:44.380Z,7.07
2018-04-13T19:06:12.669Z,6.93
2018-04-13T19:08:40.225Z,7.33
2018-04-13T19:11:08.463Z,7.70
2018-04-13T19:13:35.979Z,10.37
2018-04-13T19:16:03.521Z,13.07
2018-04-13T19:18:31.048Z,10.70
2018-04-13T19:20:58.628Z,10.30
2018-04-13T19:23:26.881Z,8.27
2018-04-13T19:25:54.392Z,8.57
2018-04-13T19:28:21.919Z,7.77
2018-04-13T19:30:50.187Z,7.53
2018-04-13T19:33:18.460Z,6.73
2018-04-13T19:35:45.941Z,6.80
2018-04-13T19:38:14.263Z,6.27
2018-04-13T19:40:41.751Z,5.70
2018-04-13T19:43:09.243Z,7.30
2018-04-13T19:45:36.710Z,5.70
2018-04-13T19:48:04.204Z,6.27
2018-04-13T19:50:31.677Z,5.63
2018-04-13T19:52:59.927Z,4.90
2018-04-13T19:55:27.415Z,10.40
2018-04-13T19:57:55.042Z,4.17
2018-04-13T20:00:22.535Z,4.60
2018-04-13T20:02:50.848Z,3.70
2018-04-13T20:05:18.364Z,3.80
2018-04-13T20:07:45.953Z,3.90
2018-04-13T20:10:14.253Z,3.33
2018-04-13T20:12:41.831Z,3.40
2018-04-13T20:15:09.582Z,4.23
2018-04-13T20:17:37.097Z,3.80
2018-04-13T20:20:04.688Z,3.60
2018-04-13T20:22:32.168Z,3.47
2018-04-13T20:24:59.669Z,3.10
2018-04-13T20:27:27.190Z,3.20
2018-04-13T20:29:54.660Z,3.37
2018-04-13T20:32:22.227Z,4.00
2018-04-13T20:34:49.784Z,3.90
2018-04-13T20:37:17.345Z,3.30
2018-04-13T20:39:44.841Z,3.60
2018-04-13T20:42:13.087Z,3.70
2018-04-13T20:44:40.575Z,3.67
2018-04-13T20:47:08.849Z,3.97
2018-04-13T20:49:37.098Z,3.97
2018-04-13T20:52:04.610Z,4.07
2018-04-13T20:54:32.139Z,4.27
2018-04-13T20:56:59.645Z,6.03
2018-04-13T20:59:27.916Z,4.37
2018-04-13T21:01:55.431Z,5.00
2018-04-13T21:04:22.902Z,5.00
2018-04-13T21:06:51.266Z,5.10
2018-04-13T21:09:18.761Z,4.93
2018-04-13T21:11:46.313Z,5.70
2018-04-13T21:14:15.774Z,5.50
2018-04-13T21:16:43.331Z,5.50
2018-04-13T21:19:10.810Z,6.00
2018-04-13T21:21:39.075Z,6.33
2018-04-13T21:24:06.623Z,6.57
2018-04-13T21:26:34.249Z,6.77
2018-04-13T21:29:01.786Z,6.53
2018-04-13T21:31:30.042Z,6.13
2018-04-13T21:33:57.595Z,5.87
2018-04-13T21:36:25.161Z,6.50
2018-04-13T21:38:52.633Z,6.70
2018-04-13T21:41:20.907Z,6.90
2018-04-13T21:43:49.155Z,6.57
2018-04-13T21:46:16.654Z,6.97
2018-04-13T21:48:44.133Z,7.47
2018-04-13T21:51:11.629Z,7.40
2018-04-13T21:53:39.163Z,8.17
2018-04-13T21:56:06.722Z,8.43
2018-04-13T21:58:34.224Z,8.20
2018-04-13T22:01:01.792Z,7.90
2018-04-13T22:03:30.073Z,7.87
2018-04-13T22:05:58.322Z,8.13
2018-04-13T22:08:25.922Z,8.23
2018-04-13T22:10:53.495Z,7.50
2018-04-13T22:13:29.993Z,7.57
2018-04-13T22:15:57.629Z,6.80
2018-04-13T22:18:25.569Z,6.33
2018-04-13T22:20:53.984Z,6.20
2018-04-13T22:23:21.476Z,6.30
2018-04-13T22:25:48.982Z,6.70
2018-04-13T22:28:16.464Z,6.87
2018-04-13T22:30:43.985Z,6.70
2018-04-13T22:33:12.238Z,6.50
2018-04-13T22:35:39.721Z,6.40
2018-04-13T22:38:07.998Z,6.00
2018-04-13T22:40:36.277Z,6.37
2018-04-13T22:43:04.557Z,6.17
2018-04-13T22:45:32.102Z,5.70
2018-04-13T22:48:00.417Z,6.00
2018-04-13T22:50:27.937Z,5.03
2018-04-13T22:52:56.198Z,5.40
2018-04-13T22:55:23.877Z,5.33
2018-04-13T22:57:52.190Z,5.53
2018-04-13T23:00:19.826Z,5.40
2018-04-13T23:02:48.105Z,5.40
2018-04-13T23:05:15.730Z,5.93
2018-04-13T23:07:43.215Z,6.37
2018-04-13T23:10:11.477Z,6.67
2018-04-13T23:12:38.940Z,5.90
2018-04-13T23:15:06.525Z,6.90
2018-04-13T23:17:34.780Z,6.77
2018-04-13T23:20:02.305Z,7.57
2018-04-13T23:22:39.596Z,7.27
2018-04-13T23:25:07.210Z,7.47
2018-04-13T23:27:34.684Z,8.03
2018-04-13T23:30:02.162Z,8.53
2018-04-13T23:32:29.722Z,8.83
2018-04-13T23:34:57.203Z,8.23
2018-04-13T23:37:24.780Z,8.57
2018-04-13T23:39:53.040Z,9.07
2018-04-13T23:42:20.524Z,9.60
2018-04-13T23:44:48.804Z,8.60
2018-04-13T23:47:17.053Z,8.57
2018-04-13T23:49:44.621Z,9.33
2018-04-13T23:52:16.961Z,8.70
2018-04-13T23:54:44.453Z,8.70
2018-04-13T23:57:12.051Z,8.53
2018-04-13T23:59:40.050Z,8.40
